createdAt,value
2018-12-09T00:00:22.853Z,10.60
2018-12-09T00:02:51.473Z,10.50
2018-12-09T00:05:19.881Z,10.50
2018-12-09T00:07:48.519Z,10.50
2018-12-09T00:10:17.615Z,10.50
2018-12-09T00:12:47.129Z,10.50
2018-12-09T00:15:16.469Z,10.50
2018-12-09T00:17:45.114Z,10.50
2018-12-09T00:20:13.460Z,10.40
2018-12-09T00:22:42.099Z,10.30
2018-12-09T00:25:13.591Z,10.40
2018-12-09T00:27:42.209Z,10.40
2018-12-09T00:30:10.750Z,10.40
2018-12-09T00:32:39.467Z,10.40
2018-12-09T00:35:08.174Z,10.40
2018-12-09T00:37:36.653Z,10.40
2018-12-09T00:40:05.626Z,10.40
2018-12-09T00:42:34.133Z,10.40
2018-12-09T00:45:02.624Z,10.30
2018-12-09T00:47:31.524Z,10.20
2018-12-09T00:50:00.388Z,10.20
2018-12-09T00:52:29.110Z,10.20
2018-12-09T00:54:57.663Z,10.30
2018-12-09T00:57:25.993Z,10.30
2018-12-09T00:59:54.637Z,10.30
2018-12-09T01:02:23.213Z,10.30
2018-12-09T01:04:52.083Z,10.30
2018-12-09T01:07:20.583Z,10.30
2018-12-09T01:09:49.151Z,10.30
2018-12-09T01:12:17.887Z,10.30
2018-12-09T01:14:46.483Z,10.30
2018-12-09T01:17:14.825Z,10.30
2018-12-09T01:19:43.287Z,10.30
2018-12-09T01:22:11.858Z,10.40
2018-12-09T01:24:40.162Z,10.30
2018-12-09T01:27:08.619Z,10.40
2018-12-09T01:29:37.300Z,10.40
2018-12-09T01:32:05.699Z,10.30
2018-12-09T01:34:34.084Z,10.30
2018-12-09T01:37:02.507Z,10.40
2018-12-09T01:39:30.888Z,10.40
2018-12-09T01:41:59.626Z,10.40
2018-12-09T01:44:28.187Z,10.40
2018-12-09T01:46:56.582Z,10.40
2018-12-09T01:49:25.498Z,10.40
2018-12-09T01:51:54.231Z,10.40
2018-12-09T01:54:22.706Z,10.40
2018-12-09T01:56:51.103Z,10.40
2018-12-09T01:59:19.512Z,10.40
2018-12-09T02:01:47.880Z,10.40
2018-12-09T02:04:17.076Z,10.40
2018-12-09T02:06:45.466Z,10.40
2018-12-09T02:09:13.896Z,10.30
2018-12-09T02:11:42.450Z,10.30
2018-12-09T02:14:10.868Z,10.30
2018-12-09T02:16:39.582Z,10.40
2018-12-09T02:19:17.861Z,10.40
2018-12-09T02:21:46.390Z,10.40
2018-12-09T02:24:15.742Z,10.40
2018-12-09T02:26:44.187Z,10.30
2018-12-09T02:29:12.605Z,10.40
2018-12-09T02:31:41.216Z,10.40
2018-12-09T02:34:09.939Z,10.50
2018-12-09T02:36:38.602Z,10.50
2018-12-09T02:39:08.571Z,10.50
2018-12-09T02:41:37.197Z,10.50
2018-12-09T02:44:05.936Z,10.40
2018-12-09T02:46:34.786Z,10.50
2018-12-09T02:49:03.408Z,10.50
2018-12-09T02:51:32.162Z,10.40
2018-12-09T02:54:00.787Z,10.40
2018-12-09T02:56:29.239Z,10.50
2018-12-09T02:58:58.391Z,10.50
2018-12-09T03:01:26.778Z,10.50
2018-12-09T03:03:55.487Z,10.60
2018-12-09T03:06:24.151Z,10.50
2018-12-09T03:08:52.940Z,10.40
2018-12-09T03:11:21.427Z,10.50
2018-12-09T03:13:49.974Z,10.50
2018-12-09T03:16:18.549Z,10.50
2018-12-09T03:18:47.793Z,10.60
2018-12-09T03:21:16.375Z,10.60
2018-12-09T03:23:44.776Z,10.60
2018-12-09T03:26:13.728Z,10.60
2018-12-09T03:28:42.239Z,10.60
2018-12-09T03:31:11.173Z,10.60
2018-12-09T03:33:39.516Z,10.60
2018-12-09T03:36:08.036Z,10.70
2018-12-09T03:38:36.378Z,10.70
2018-12-09T03:41:04.858Z,10.70
2018-12-09T03:43:33.330Z,10.70
2018-12-09T03:46:01.755Z,10.70
2018-12-09T03:48:30.135Z,10.80
2018-12-09T03:50:58.549Z,10.70
2018-12-09T03:53:27.394Z,10.80
2018-12-09T03:55:55.981Z,10.70
2018-12-09T03:58:24.399Z,10.70
2018-12-09T04:00:53.085Z,10.70
2018-12-09T04:03:21.567Z,10.70
2018-12-09T04:05:50.378Z,10.80
2018-12-09T04:08:19.022Z,10.80
2018-12-09T04:10:47.831Z,10.80
2018-12-09T04:13:16.230Z,10.80
2018-12-09T04:15:45.225Z,10.70
2018-12-09T04:18:13.811Z,10.70
2018-12-09T04:20:42.328Z,10.70
2018-12-09T04:23:10.805Z,10.70
2018-12-09T04:25:39.135Z,10.70
2018-12-09T04:28:07.818Z,10.70
2018-12-09T04:30:36.162Z,10.60
2018-12-09T04:33:04.640Z,10.60
2018-12-09T04:35:33.256Z,10.60
2018-12-09T04:38:01.689Z,10.60
2018-12-09T04:40:30.467Z,10.70
2018-12-09T04:42:59.152Z,10.70
2018-12-09T04:45:27.617Z,10.70
2018-12-09T04:47:56.023Z,10.70
2018-12-09T04:50:24.548Z,10.70
2018-12-09T04:52:53.128Z,10.70
2018-12-09T04:55:21.727Z,10.70
2018-12-09T04:57:50.167Z,10.70
2018-12-09T05:00:56.265Z,10.70
2018-12-09T05:03:24.916Z,10.60
2018-12-09T05:05:53.219Z,10.70
2018-12-09T05:08:21.753Z,10.60
2018-12-09T05:10:50.149Z,10.60
2018-12-09T05:13:18.703Z,10.60
2018-12-09T05:15:47.203Z,10.50
2018-12-09T05:18:16.454Z,10.50
2018-12-09T05:20:45.593Z,10.60
2018-12-09T05:23:14.147Z,10.50
2018-12-09T05:25:42.565Z,10.50
2018-12-09T05:28:11.091Z,10.60
2018-12-09T05:30:39.493Z,10.50
2018-12-09T05:33:08.282Z,10.60
2018-12-09T05:35:36.626Z,10.60
2018-12-09T05:38:04.913Z,10.60
2018-12-09T05:40:33.481Z,10.60
2018-12-09T05:43:02.202Z,10.60
2018-12-09T05:45:30.729Z,10.60
2018-12-09T05:47:59.415Z,10.60
2018-12-09T05:50:27.797Z,10.60
2018-12-09T05:52:56.180Z,10.50
2018-12-09T05:55:24.614Z,10.50
2018-12-09T05:57:52.879Z,10.40
2018-12-09T06:00:21.295Z,10.40
2018-12-09T06:02:55.585Z,10.40
2018-12-09T06:05:24.187Z,10.40
2018-12-09T06:07:53.008Z,10.30
2018-12-09T06:12:58.196Z,10.30
2018-12-09T06:15:26.783Z,10.40
2018-12-09T06:17:56.321Z,10.30
2018-12-09T06:20:24.767Z,10.30
2018-12-09T06:22:53.928Z,10.20
2018-12-09T06:25:22.380Z,10.10
2018-12-09T06:27:50.899Z,10.10
2018-12-09T06:30:19.408Z,10.10
2018-12-09T06:32:47.936Z,10.10
2018-12-09T06:35:17.397Z,10.10
2018-12-09T06:37:45.715Z,10.00
2018-12-09T06:40:14.403Z,10.00
2018-12-09T06:42:42.934Z,9.90
2018-12-09T06:45:11.334Z,10.00
2018-12-09T06:47:40.051Z,9.90
2018-12-09T06:50:10.535Z,9.80
2018-12-09T06:52:39.689Z,9.70
2018-12-09T06:55:09.423Z,9.80
2018-12-09T06:57:38.182Z,9.70
2018-12-09T07:00:09.848Z,9.70
2018-12-09T07:02:38.401Z,9.70
2018-12-09T07:05:08.025Z,9.70
2018-12-09T07:07:36.555Z,9.70
2018-12-09T07:10:08.318Z,9.70
2018-12-09T07:12:37.136Z,9.70
2018-12-09T07:15:06.718Z,9.70
2018-12-09T07:17:35.273Z,9.70
2018-12-09T07:20:04.022Z,9.70
2018-12-09T07:22:32.843Z,9.80
2018-12-09T07:25:01.355Z,9.80
2018-12-09T07:27:29.907Z,9.90
2018-12-09T07:30:02.230Z,9.80
2018-12-09T07:32:28.909Z,9.80
2018-12-09T07:34:57.858Z,9.80
2018-12-09T07:37:28.743Z,9.80
2018-12-09T07:39:57.792Z,9.80
2018-12-09T07:42:26.454Z,9.80
2018-12-09T07:44:55.136Z,9.80
2018-12-09T07:47:25.937Z,9.80
2018-12-09T07:49:54.802Z,9.70
2018-12-09T07:52:23.966Z,9.70
2018-12-09T07:54:55.137Z,9.70
2018-12-09T07:57:23.632Z,9.70
2018-12-09T07:59:51.960Z,9.90
2018-12-09T08:02:20.954Z,9.90
2018-12-09T08:04:49.410Z,10.00
2018-12-09T08:07:18.205Z,10.10
2018-12-09T08:09:46.615Z,10.10
2018-12-09T08:12:18.471Z,10.10
2018-12-09T08:14:47.935Z,10.00
2018-12-09T08:17:16.350Z,10.00
2018-12-09T08:19:45.680Z,9.80
2018-12-09T08:22:14.416Z,9.80
2018-12-09T08:24:43.831Z,9.90
2018-12-09T08:27:12.270Z,9.80
2018-12-09T08:29:46.424Z,9.90
2018-12-09T08:32:15.902Z,9.80
2018-12-09T08:34:44.532Z,9.90
2018-12-09T08:37:13.259Z,9.90
2018-12-09T08:39:42.625Z,9.90
2018-12-09T08:42:11.230Z,9.90
2018-12-09T08:44:39.934Z,9.80
2018-12-09T08:47:09.626Z,9.90
2018-12-09T08:49:38.414Z,9.90
2018-12-09T08:52:06.888Z,9.90
2018-12-09T08:57:16.296Z,9.80
2018-12-09T08:59:45.003Z,9.80
2018-12-09T09:02:13.620Z,9.90
2018-12-09T09:04:42.071Z,9.90
2018-12-09T09:07:10.657Z,9.90
2018-12-09T09:09:39.680Z,10.00
2018-12-09T09:12:08.310Z,10.00
2018-12-09T09:14:36.971Z,10.00
2018-12-09T09:17:05.580Z,10.00
2018-12-09T09:19:34.679Z,10.00
2018-12-09T09:22:03.158Z,10.20
2018-12-09T09:24:31.657Z,10.20
2018-12-09T09:27:00.236Z,10.30
2018-12-09T09:29:28.877Z,10.30
2018-12-09T09:31:57.307Z,10.20
2018-12-09T09:34:26.035Z,10.20
2018-12-09T09:36:55.058Z,10.10
2018-12-09T09:42:00.556Z,9.90
2018-12-09T09:44:28.924Z,9.90
2018-12-09T09:46:57.284Z,9.90
2018-12-09T09:49:25.792Z,10.00
2018-12-09T09:51:54.831Z,10.00
2018-12-09T09:54:23.406Z,10.00
2018-12-09T09:56:53.426Z,9.90
2018-12-09T09:59:21.982Z,9.90
2018-12-09T10:01:50.360Z,9.90
2018-12-09T10:04:19.860Z,10.00
2018-12-09T10:06:48.976Z,10.00
2018-12-09T10:09:18.072Z,10.10
2018-12-09T10:11:46.584Z,10.10
2018-12-09T10:14:15.018Z,10.10
2018-12-09T10:16:43.836Z,10.10
2018-12-09T10:19:12.348Z,10.20
2018-12-09T10:21:42.026Z,10.20
2018-12-09T10:24:10.538Z,10.40
2018-12-09T10:26:48.061Z,10.40
2018-12-09T10:29:19.303Z,10.50
2018-12-09T10:31:49.120Z,10.40
2018-12-09T10:34:18.580Z,10.40
2018-12-09T10:36:48.274Z,10.40
2018-12-09T10:39:17.841Z,10.50
2018-12-09T10:41:47.062Z,10.50
2018-12-09T10:44:16.208Z,10.50
2018-12-09T10:46:44.808Z,10.40
2018-12-09T10:49:13.345Z,10.40
2018-12-09T10:51:41.733Z,10.30
2018-12-09T10:54:10.290Z,10.30
2018-12-09T10:56:38.660Z,10.20
2018-12-09T10:59:07.086Z,10.30
2018-12-09T11:01:43.364Z,10.30
2018-12-09T11:04:12.071Z,10.20
2018-12-09T11:06:41.943Z,10.20
2018-12-09T11:09:10.319Z,10.20
2018-12-09T11:11:38.783Z,10.20
2018-12-09T11:14:07.350Z,10.20
2018-12-09T11:16:36.400Z,10.30
2018-12-09T11:19:05.941Z,10.40
2018-12-09T11:21:35.687Z,10.40
2018-12-09T11:24:05.257Z,10.30
2018-12-09T11:26:34.767Z,10.20
2018-12-09T11:29:05.669Z,10.20
2018-12-09T11:31:34.057Z,10.20
2018-12-09T11:34:02.532Z,10.30
2018-12-09T11:36:30.861Z,10.30
2018-12-09T11:38:59.597Z,10.20
2018-12-09T11:41:28.683Z,10.30
2018-12-09T11:43:58.744Z,10.40
2018-12-09T11:46:27.288Z,10.50
2018-12-09T11:48:56.470Z,10.60
2018-12-09T11:51:24.892Z,10.60
2018-12-09T11:53:53.698Z,10.70
2018-12-09T11:56:22.487Z,10.70
2018-12-09T11:58:52.052Z,10.80
2018-12-09T12:01:20.818Z,10.80
2018-12-09T12:03:50.492Z,10.70
2018-12-09T12:06:19.067Z,10.70
2018-12-09T12:08:49.289Z,10.60
2018-12-09T12:11:23.257Z,10.50
2018-12-09T12:13:52.507Z,10.40
2018-12-09T12:16:21.382Z,10.30
2018-12-09T12:18:50.020Z,10.30
2018-12-09T12:21:18.862Z,10.30
2018-12-09T12:23:47.119Z,10.30
2018-12-09T12:26:15.613Z,10.30
2018-12-09T12:28:44.246Z,10.30
2018-12-09T12:31:13.299Z,10.30
2018-12-09T12:33:42.469Z,10.30
2018-12-09T12:36:11.270Z,10.30
2018-12-09T12:38:39.823Z,10.30
2018-12-09T12:41:08.246Z,10.40
2018-12-09T12:43:36.979Z,10.40
2018-12-09T12:46:05.508Z,10.40
2018-12-09T12:48:34.303Z,10.40
2018-12-09T12:51:03.223Z,10.30
2018-12-09T12:53:31.779Z,10.40
2018-12-09T12:56:00.107Z,10.40
2018-12-09T12:58:28.745Z,10.50
2018-12-09T13:00:57.360Z,10.60
2018-12-09T13:03:26.026Z,10.70
2018-12-09T13:05:54.569Z,10.70
2018-12-09T13:08:23.218Z,10.70
2018-12-09T13:10:55.073Z,10.70
2018-12-09T13:13:23.623Z,10.70
2018-12-09T13:15:53.584Z,10.70
2018-12-09T13:18:23.791Z,10.60
2018-12-09T13:20:52.638Z,10.60
2018-12-09T13:23:23.270Z,10.60
2018-12-09T13:25:52.127Z,10.50
2018-12-09T13:28:21.822Z,10.50
2018-12-09T13:30:50.531Z,10.50
2018-12-09T13:33:19.482Z,10.40
2018-12-09T13:35:48.106Z,10.30
2018-12-09T13:38:16.813Z,10.30
2018-12-09T13:40:45.288Z,10.30
2018-12-09T13:43:14.022Z,10.20
2018-12-09T13:45:42.577Z,10.20
2018-12-09T13:48:11.309Z,10.20
2018-12-09T13:50:39.985Z,10.20
2018-12-09T13:53:08.463Z,10.20
2018-12-09T13:55:38.404Z,10.30
2018-12-09T13:58:07.378Z,10.30
2018-12-09T14:00:35.923Z,10.20
2018-12-09T14:03:04.345Z,10.20
2018-12-09T14:05:32.772Z,10.20
2018-12-09T14:08:01.322Z,10.30
2018-12-09T14:10:29.907Z,10.30
2018-12-09T14:12:58.534Z,10.30
2018-12-09T14:15:26.974Z,10.20
2018-12-09T14:17:55.419Z,10.20
2018-12-09T14:20:24.315Z,10.30
2018-12-09T14:22:53.937Z,10.30
2018-12-09T14:25:22.672Z,10.30
2018-12-09T14:27:51.089Z,10.40
2018-12-09T14:30:19.679Z,10.50
2018-12-09T14:32:48.255Z,10.40
2018-12-09T14:35:17.455Z,10.40
2018-12-09T14:37:45.794Z,10.50
2018-12-09T14:40:14.429Z,10.40
2018-12-09T14:42:42.845Z,10.40
2018-12-09T14:45:11.393Z,10.30
2018-12-09T14:47:40.471Z,10.30
2018-12-09T14:50:09.341Z,10.30
2018-12-09T14:52:37.708Z,10.30
2018-12-09T14:55:06.777Z,10.20
2018-12-09T14:57:35.796Z,10.10
2018-12-09T15:00:07.206Z,10.10
2018-12-09T15:02:37.491Z,10.00
2018-12-09T15:05:06.377Z,10.10
2018-12-09T15:07:34.837Z,10.00
2018-12-09T15:10:08.559Z,10.10
2018-12-09T15:12:35.247Z,10.10
2018-12-09T15:15:03.779Z,10.10
2018-12-09T15:17:32.205Z,10.10
2018-12-09T15:20:00.815Z,10.10
2018-12-09T15:22:29.371Z,10.00
2018-12-09T15:24:57.944Z,10.00
2018-12-09T15:27:26.404Z,10.00
2018-12-09T15:29:54.721Z,10.00
2018-12-09T15:32:23.182Z,10.00
2018-12-09T15:34:51.623Z,10.10
2018-12-09T15:37:20.043Z,10.00
2018-12-09T15:39:48.712Z,9.90
2018-12-09T15:42:17.097Z,9.90
2018-12-09T15:44:45.453Z,9.80
2018-12-09T15:47:14.062Z,9.80
2018-12-09T15:49:42.575Z,9.80
2018-12-09T15:52:10.904Z,9.90
2018-12-09T15:54:40.329Z,9.90
2018-12-09T15:57:08.885Z,9.90
2018-12-09T15:59:37.350Z,9.90
2018-12-09T16:02:06.070Z,9.90
2018-12-09T16:04:35.236Z,9.90
2018-12-09T16:07:03.682Z,9.80
2018-12-09T16:09:32.528Z,9.80
2018-12-09T16:12:01.188Z,9.90
2018-12-09T16:14:30.136Z,9.90
2018-12-09T16:16:58.622Z,9.90
2018-12-09T16:19:27.620Z,9.90
2018-12-09T16:21:56.101Z,9.90
2018-12-09T16:24:24.542Z,10.00
2018-12-09T16:26:53.542Z,10.00
2018-12-09T16:29:22.057Z,9.90
2018-12-09T16:31:50.745Z,9.90
2018-12-09T16:34:19.728Z,10.00
2018-12-09T16:36:48.340Z,10.00
2018-12-09T16:39:16.915Z,9.90
2018-12-09T16:44:24.302Z,9.90
2018-12-09T16:46:52.832Z,9.90
2018-12-09T16:49:21.238Z,9.80
2018-12-09T16:51:49.618Z,9.70
2018-12-09T16:54:18.127Z,9.80
2018-12-09T16:56:46.907Z,9.80
2018-12-09T16:59:15.218Z,9.80
2018-12-09T17:01:43.927Z,9.80
2018-12-09T17:04:12.612Z,9.70
2018-12-09T17:06:41.063Z,9.70
2018-12-09T17:09:11.789Z,9.70
2018-12-09T17:11:41.367Z,9.70
2018-12-09T17:14:10.080Z,9.70
2018-12-09T17:16:38.568Z,9.70
2018-12-09T17:19:07.690Z,9.70
2018-12-09T17:21:37.809Z,9.60
2018-12-09T17:24:06.468Z,9.60
2018-12-09T17:26:34.938Z,9.50
2018-12-09T17:29:05.507Z,9.60
2018-12-09T17:31:34.216Z,9.50
2018-12-09T17:34:02.709Z,9.50
2018-12-09T17:36:31.090Z,9.50
2018-12-09T17:38:59.675Z,9.40
2018-12-09T17:41:28.550Z,9.40
2018-12-09T17:43:56.946Z,9.50
2018-12-09T17:46:25.466Z,9.50
2018-12-09T17:48:53.946Z,9.50
2018-12-09T17:51:23.274Z,9.40
2018-12-09T17:53:51.595Z,9.50
2018-12-09T17:56:20.130Z,9.40
2018-12-09T17:58:48.476Z,9.40
2018-12-09T18:01:18.198Z,9.30
2018-12-09T18:03:46.640Z,9.30
2018-12-09T18:06:15.162Z,9.30
2018-12-09T18:08:43.731Z,9.40
2018-12-09T18:11:13.667Z,9.40
2018-12-09T18:13:42.117Z,9.40
2018-12-09T18:16:11.058Z,9.40
2018-12-09T18:18:40.181Z,9.40
2018-12-09T18:21:10.016Z,9.40
2018-12-09T18:23:38.487Z,9.30
2018-12-09T18:26:06.880Z,9.30
2018-12-09T18:28:35.279Z,9.30
2018-12-09T18:31:03.916Z,9.30
2018-12-09T18:33:32.475Z,9.30
2018-12-09T18:36:01.594Z,9.30
2018-12-09T18:38:30.121Z,9.30
2018-12-09T18:40:58.565Z,9.30
2018-12-09T18:43:27.019Z,9.30
2018-12-09T18:45:55.527Z,9.20
2018-12-09T18:48:24.320Z,9.20
2018-12-09T18:50:53.619Z,9.20
2018-12-09T18:53:21.984Z,9.20
2018-12-09T18:55:50.557Z,9.20
2018-12-09T18:58:18.979Z,9.20
2018-12-09T19:00:47.533Z,9.20
2018-12-09T19:03:15.961Z,9.20
2018-12-09T19:05:45.165Z,9.10
2018-12-09T19:08:14.006Z,9.10
2018-12-09T19:10:48.435Z,9.10
2018-12-09T19:13:18.435Z,9.20
2018-12-09T19:15:47.178Z,9.20
2018-12-09T19:18:17.226Z,9.10
2018-12-09T19:20:46.263Z,9.10
2018-12-09T19:23:15.850Z,9.00
2018-12-09T19:25:44.740Z,9.00
2018-12-09T19:28:13.072Z,9.10
2018-12-09T19:30:48.168Z,9.00
2018-12-09T19:33:12.287Z,9.00
2018-12-09T19:35:40.740Z,9.00
2018-12-09T19:38:09.269Z,9.10
2018-12-09T19:40:37.744Z,9.00
2018-12-09T19:43:06.507Z,9.10
2018-12-09T19:45:34.991Z,9.10
2018-12-09T19:48:03.768Z,9.10
2018-12-09T19:50:32.240Z,9.10
2018-12-09T19:53:00.973Z,9.00
2018-12-09T19:55:29.502Z,9.00
2018-12-09T19:57:58.296Z,9.00
2018-12-09T20:00:27.781Z,8.90
2018-12-09T20:02:56.186Z,9.00
2018-12-09T20:05:24.804Z,9.00
2018-12-09T20:07:55.433Z,9.10
2018-12-09T20:10:26.476Z,9.00
2018-12-09T20:12:55.187Z,9.10
2018-12-09T20:15:23.986Z,9.00
2018-12-09T20:17:53.472Z,9.00
2018-12-09T20:20:22.042Z,8.90
2018-12-09T20:22:50.715Z,8.90
2018-12-09T20:25:19.253Z,8.80
2018-12-09T20:27:49.008Z,8.80
2018-12-09T20:30:17.961Z,8.70
2018-12-09T20:32:51.210Z,8.70
2018-12-09T20:35:22.906Z,8.70
2018-12-09T20:37:51.558Z,8.80
2018-12-09T20:40:20.216Z,8.80
2018-12-09T20:42:48.682Z,8.80
2018-12-09T20:45:18.790Z,8.80
2018-12-09T20:47:47.431Z,8.70
2018-12-09T20:50:16.047Z,8.60
2018-12-09T20:52:45.494Z,8.70
2018-12-09T20:55:14.115Z,8.70
2018-12-09T20:57:42.654Z,8.70
2018-12-09T21:00:12.329Z,8.70
2018-12-09T21:02:41.495Z,8.70
2018-12-09T21:05:10.370Z,8.70
2018-12-09T21:07:39.540Z,8.70
2018-12-09T21:10:10.055Z,8.70
2018-12-09T21:12:38.658Z,8.70
2018-12-09T21:15:07.860Z,8.60
2018-12-09T21:17:37.156Z,8.60
2018-12-09T21:20:06.127Z,8.70
2018-12-09T21:22:35.391Z,8.60
2018-12-09T21:25:04.386Z,8.70
2018-12-09T21:27:33.071Z,8.70
2018-12-09T21:30:02.788Z,8.70
2018-12-09T21:32:31.464Z,8.70
2018-12-09T21:34:59.976Z,8.70
2018-12-09T21:37:28.671Z,8.60
2018-12-09T21:39:57.617Z,8.60
2018-12-09T21:42:26.074Z,8.60
2018-12-09T21:44:54.851Z,8.60
2018-12-09T21:47:23.604Z,8.60
2018-12-09T21:49:51.988Z,8.50
2018-12-09T21:52:21.824Z,8.50
2018-12-09T21:54:51.306Z,8.40
2018-12-09T21:57:19.722Z,8.40
2018-12-09T21:59:48.232Z,8.50
2018-12-09T22:02:17.554Z,8.50
2018-12-09T22:04:46.052Z,8.50
2018-12-09T22:07:14.556Z,8.60
2018-12-09T22:09:43.545Z,8.60
2018-12-09T22:12:12.090Z,8.60
2018-12-09T22:14:40.756Z,8.60
2018-12-09T22:17:09.420Z,8.60
2018-12-09T22:19:38.797Z,8.50
2018-12-09T22:22:07.518Z,8.40
2018-12-09T22:24:35.901Z,8.40
2018-12-09T22:27:04.390Z,8.40
2018-12-09T22:29:32.781Z,8.40
2018-12-09T22:32:01.058Z,8.40
2018-12-09T22:34:29.632Z,8.50
2018-12-09T22:36:58.026Z,8.50
2018-12-09T22:39:26.327Z,8.40
2018-12-09T22:41:54.599Z,8.40
2018-12-09T22:44:22.929Z,8.50
2018-12-09T22:46:51.237Z,8.50
2018-12-09T22:49:19.613Z,8.50
2018-12-09T22:51:47.946Z,8.50
2018-12-09T22:54:17.998Z,8.40
2018-12-09T22:56:46.793Z,8.50
2018-12-09T22:59:15.431Z,8.50
2018-12-09T23:01:49.589Z,8.50
2018-12-09T23:04:17.891Z,8.40
2018-12-09T23:06:46.780Z,8.30
2018-12-09T23:09:15.127Z,8.30
2018-12-09T23:11:43.456Z,8.20
2018-12-09T23:14:11.796Z,8.20
2018-12-09T23:16:40.339Z,8.20
2018-12-09T23:19:08.901Z,8.20
2018-12-09T23:21:37.268Z,8.10
2018-12-09T23:24:06.004Z,8.10
2018-12-09T23:26:34.384Z,8.00
2018-12-09T23:29:03.847Z,8.00
2018-12-09T23:31:32.229Z,8.00
2018-12-09T23:34:01.342Z,8.00
2018-12-09T23:36:29.850Z,7.90
2018-12-09T23:38:58.218Z,7.90
2018-12-09T23:41:26.811Z,7.90
2018-12-09T23:43:55.181Z,7.90
2018-12-09T23:46:23.560Z,8.00
2018-12-09T23:48:51.872Z,8.00
2018-12-09T23:51:20.118Z,8.10
2018-12-09T23:53:48.532Z,8.20
2018-12-09T23:56:16.826Z,8.30
2018-12-09T23:58:45.141Z,8.20
